createdAt,value
2023-01-30T00:02:14.429Z,55.15
2023-01-30T00:05:00.760Z,54.96
2023-01-30T00:07:46.726Z,53.94
2023-01-30T00:10:32.749Z,54.35
2023-01-30T00:13:18.621Z,53.54
2023-01-30T00:16:06.549Z,53.28
2023-01-30T00:18:52.864Z,53.17
2023-01-30T00:21:38.752Z,53.46
2023-01-30T00:24:24.761Z,54.73
2023-01-30T00:27:11.052Z,54.58
2023-01-30T00:33:03.072Z,53.62
2023-01-30T00:35:50.957Z,53.36
2023-01-30T00:38:36.949Z,53.68
2023-01-30T00:41:22.816Z,53.92
2023-01-30T00:44:08.777Z,53.53
2023-01-30T00:46:54.661Z,54.10
2023-01-30T00:49:40.461Z,53.94
2023-01-30T00:52:26.380Z,53.85
2023-01-30T00:55:12.159Z,53.67
2023-01-30T00:57:58.218Z,54.39
2023-01-30T01:00:44.321Z,53.73
2023-01-30T01:03:30.068Z,53.74
2023-01-30T01:06:15.970Z,53.43
2023-01-30T01:09:01.850Z,52.92
2023-01-30T01:11:47.846Z,52.21
2023-01-30T01:14:33.769Z,52.99
2023-01-30T01:17:19.921Z,52.71
2023-01-30T01:20:05.782Z,52.67
2023-01-30T01:22:51.739Z,52.45
2023-01-30T01:25:37.426Z,52.02
2023-01-30T01:28:23.291Z,52.60
2023-01-30T01:31:09.282Z,52.39
2023-01-30T01:33:55.616Z,52.53
2023-01-30T01:36:53.336Z,53.32
2023-01-30T01:39:40.572Z,53.54
2023-01-30T01:42:26.360Z,53.92
2023-01-30T01:45:12.200Z,54.12
2023-01-30T01:47:58.100Z,54.50
2023-01-30T01:50:44.068Z,54.47
2023-01-30T01:53:29.865Z,54.21
2023-01-30T01:56:15.880Z,54.54
2023-01-30T01:59:01.822Z,55.13
2023-01-30T02:01:47.749Z,55.33
2023-01-30T02:04:33.541Z,55.27
2023-01-30T02:07:19.327Z,54.95
2023-01-30T02:10:05.276Z,54.62
2023-01-30T02:12:51.135Z,54.43
2023-01-30T02:15:36.925Z,54.07
2023-01-30T02:18:22.853Z,54.25
2023-01-30T02:21:08.641Z,54.54
2023-01-30T02:23:54.766Z,54.48
2023-01-30T02:26:40.695Z,54.77
2023-01-30T02:29:26.570Z,53.88
2023-01-30T02:32:12.525Z,53.77
2023-01-30T02:34:58.575Z,53.29
2023-01-30T02:37:44.380Z,54.07
2023-01-30T02:40:30.319Z,53.50
2023-01-30T02:43:16.088Z,53.73
2023-01-30T02:46:02.035Z,53.56
2023-01-30T02:48:47.936Z,53.68
2023-01-30T02:51:33.824Z,53.98
2023-01-30T02:54:19.717Z,54.64
2023-01-30T02:57:07.571Z,54.25
2023-01-30T02:59:53.379Z,54.12
2023-01-30T03:02:39.472Z,54.04
2023-01-30T03:05:25.568Z,54.40
2023-01-30T03:08:11.547Z,53.81
2023-01-30T03:10:58.554Z,54.67
2023-01-30T03:13:44.805Z,57.96
2023-01-30T03:16:30.664Z,58.61
2023-01-30T03:19:16.616Z,57.76
2023-01-30T03:22:02.449Z,57.81
2023-01-30T03:24:48.442Z,57.26
2023-01-30T03:27:34.314Z,56.34
2023-01-30T03:30:20.201Z,56.13
2023-01-30T03:33:06.240Z,55.61
2023-01-30T03:35:52.177Z,55.16
2023-01-30T03:38:38.110Z,54.99
2023-01-30T03:41:23.981Z,54.83
2023-01-30T03:44:09.762Z,54.85
2023-01-30T03:46:55.863Z,55.85
2023-01-30T03:49:41.822Z,59.47
2023-01-30T03:52:27.772Z,58.98
2023-01-30T03:55:13.717Z,58.42
2023-01-30T03:57:59.596Z,57.71
2023-01-30T04:00:45.462Z,58.17
2023-01-30T04:03:31.523Z,57.80
2023-01-30T04:06:17.299Z,57.09
2023-01-30T04:09:03.124Z,56.95
2023-01-30T04:11:49.190Z,56.83
2023-01-30T04:14:35.068Z,56.31
2023-01-30T04:17:20.992Z,56.51
2023-01-30T04:20:06.806Z,57.49
2023-01-30T04:22:52.668Z,56.85
2023-01-30T04:25:38.567Z,56.79
2023-01-30T04:28:24.431Z,57.76
2023-01-30T04:31:10.417Z,56.84
2023-01-30T04:33:56.215Z,56.56
2023-01-30T04:36:42.058Z,56.11
2023-01-30T04:39:27.992Z,57.47
2023-01-30T04:42:13.883Z,58.24
2023-01-30T04:45:01.844Z,59.21
2023-01-30T04:47:47.788Z,59.35
2023-01-30T04:50:33.623Z,58.70
2023-01-30T04:53:19.620Z,60.92
2023-01-30T04:56:05.350Z,60.48
2023-01-30T04:58:51.234Z,59.20
2023-01-30T05:01:37.263Z,59.48
2023-01-30T05:04:23.230Z,60.40
2023-01-30T05:07:09.167Z,60.48
2023-01-30T05:09:55.252Z,59.79
2023-01-30T05:12:41.139Z,59.41
2023-01-30T05:15:26.965Z,58.75
2023-01-30T05:18:12.735Z,60.51
2023-01-30T05:20:58.609Z,69.46
2023-01-30T05:23:44.567Z,66.00
2023-01-30T05:26:30.486Z,64.22
2023-01-30T05:29:16.484Z,63.63
2023-01-30T05:32:02.648Z,63.27
2023-01-30T05:34:48.667Z,63.23
2023-01-30T05:37:34.576Z,62.48
2023-01-30T05:40:20.320Z,61.35
2023-01-30T05:43:06.258Z,60.49
2023-01-30T05:45:52.024Z,61.16
2023-01-30T05:48:37.896Z,61.55
2023-01-30T05:51:23.767Z,60.46
2023-01-30T05:54:09.685Z,60.17
2023-01-30T05:56:55.622Z,59.85
2023-01-30T05:59:41.614Z,58.76
2023-01-30T06:02:27.424Z,58.54
2023-01-30T06:05:13.480Z,60.54
2023-01-30T06:07:59.626Z,64.99
2023-01-30T06:10:45.461Z,62.68
2023-01-30T06:13:31.515Z,62.36
2023-01-30T06:16:17.506Z,62.73
2023-01-30T06:19:03.396Z,62.04
2023-01-30T06:21:49.298Z,60.71
2023-01-30T06:24:37.040Z,60.42
2023-01-30T06:27:22.975Z,59.36
2023-01-30T06:30:08.852Z,60.89
2023-01-30T06:32:54.656Z,61.19
2023-01-30T06:35:40.764Z,60.82
2023-01-30T06:38:26.574Z,59.82
2023-01-30T06:41:12.450Z,59.19
2023-01-30T06:43:58.307Z,58.97
2023-01-30T06:46:44.322Z,58.15
2023-01-30T06:49:30.353Z,58.08
2023-01-30T06:52:16.234Z,58.10
2023-01-30T06:55:02.116Z,59.45
2023-01-30T06:57:48.011Z,58.55
2023-01-30T07:00:33.867Z,58.11
2023-01-30T07:03:19.716Z,58.32
2023-01-30T07:06:05.637Z,59.13
2023-01-30T07:08:51.481Z,59.28
2023-01-30T07:11:37.355Z,61.23
2023-01-30T07:14:23.165Z,62.02
2023-01-30T07:17:08.976Z,62.18
2023-01-30T07:19:55.091Z,61.68
2023-01-30T07:22:40.932Z,61.34
2023-01-30T07:25:26.771Z,60.35
2023-01-30T07:28:12.768Z,64.88
2023-01-30T07:30:58.678Z,62.51
2023-01-30T07:33:44.799Z,64.43
2023-01-30T07:36:30.662Z,65.96
2023-01-30T07:39:16.657Z,66.67
2023-01-30T07:42:02.591Z,65.71
2023-01-30T07:44:48.404Z,64.60
2023-01-30T07:47:34.354Z,63.02
2023-01-30T07:50:20.689Z,64.28
2023-01-30T07:53:06.713Z,64.35
2023-01-30T07:55:52.629Z,65.28
2023-01-30T07:58:38.554Z,64.42
2023-01-30T08:01:24.516Z,64.87
2023-01-30T08:04:10.564Z,64.03
2023-01-30T08:06:56.380Z,63.81
2023-01-30T08:09:42.275Z,63.41
2023-01-30T08:12:28.300Z,63.98
2023-01-30T08:15:14.126Z,64.28
2023-01-30T08:18:00.142Z,63.79
2023-01-30T08:20:46.082Z,61.62
2023-01-30T08:23:31.993Z,61.21
2023-01-30T08:26:18.101Z,60.78
2023-01-30T08:29:04.058Z,59.41
2023-01-30T08:31:49.965Z,58.96
2023-01-30T08:34:35.975Z,58.36
2023-01-30T08:37:22.044Z,57.54
2023-01-30T08:40:08.104Z,57.42
2023-01-30T08:42:54.000Z,56.73
2023-01-30T08:45:39.865Z,56.67
2023-01-30T08:48:27.082Z,55.83
2023-01-30T08:51:14.101Z,56.19
2023-01-30T08:54:00.143Z,55.33
2023-01-30T08:56:46.095Z,56.07
2023-01-30T08:59:31.915Z,55.49
2023-01-30T09:02:17.875Z,55.28
2023-01-30T09:05:03.773Z,55.69
2023-01-30T09:07:49.639Z,55.73
2023-01-30T09:10:35.693Z,55.20
2023-01-30T09:13:21.633Z,55.45
2023-01-30T09:16:07.560Z,54.97
2023-01-30T09:18:53.785Z,54.72
2023-01-30T09:21:39.613Z,54.63
2023-01-30T09:24:25.584Z,54.33
2023-01-30T09:27:11.447Z,54.81
2023-01-30T09:29:57.277Z,55.09
2023-01-30T09:32:43.122Z,54.68
2023-01-30T09:35:28.909Z,54.53
2023-01-30T09:38:14.795Z,55.37
2023-01-30T09:41:00.902Z,54.23
2023-01-30T09:43:46.824Z,54.23
2023-01-30T09:46:32.793Z,53.90
2023-01-30T09:49:18.933Z,53.62
2023-01-30T09:52:04.727Z,54.32
2023-01-30T09:54:50.638Z,55.97
2023-01-30T09:57:36.513Z,54.50
2023-01-30T10:00:22.456Z,56.98
2023-01-30T10:03:08.429Z,56.68
2023-01-30T10:05:54.316Z,57.28
2023-01-30T10:08:40.386Z,56.54
2023-01-30T10:11:26.201Z,54.60
2023-01-30T10:14:12.092Z,55.90
2023-01-30T10:17:00.013Z,58.29
2023-01-30T10:19:45.925Z,60.25
2023-01-30T10:22:31.892Z,62.32
2023-01-30T10:25:17.958Z,63.34
2023-01-30T10:28:03.845Z,63.86
2023-01-30T10:30:49.931Z,63.62
2023-01-30T10:33:35.941Z,62.57
2023-01-30T10:36:21.834Z,60.23
2023-01-30T10:39:07.819Z,59.38
2023-01-30T10:41:53.756Z,57.57
2023-01-30T10:44:39.774Z,56.15
2023-01-30T10:47:27.927Z,54.38
2023-01-30T10:50:16.260Z,53.54
2023-01-30T10:53:02.588Z,53.65
2023-01-30T10:55:48.517Z,52.30
2023-01-30T10:58:34.408Z,51.33
2023-01-30T11:01:20.404Z,50.48
2023-01-30T11:04:06.456Z,50.03
2023-01-30T11:06:54.807Z,47.54
2023-01-30T11:09:40.665Z,46.84
2023-01-30T11:12:26.600Z,47.12
2023-01-30T11:15:12.384Z,47.28
2023-01-30T11:18:04.856Z,48.31
2023-01-30T11:21:04.174Z,47.52
2023-01-30T11:23:50.057Z,47.81
2023-01-30T11:26:46.675Z,47.16
2023-01-30T11:29:33.388Z,47.03
2023-01-30T11:32:19.323Z,47.72
2023-01-30T11:35:05.411Z,48.66
2023-01-30T11:37:51.324Z,46.69
2023-01-30T11:40:37.091Z,45.09
2023-01-30T11:43:23.045Z,44.88
2023-01-30T11:46:08.926Z,45.31
2023-01-30T11:49:02.339Z,45.38
2023-01-30T11:52:01.172Z,45.07
2023-01-30T11:54:48.004Z,43.06
2023-01-30T11:57:34.021Z,43.39
2023-01-30T12:00:20.568Z,42.80
2023-01-30T12:03:07.083Z,43.39
2023-01-30T12:05:53.052Z,43.60
2023-01-30T12:08:42.802Z,42.46
2023-01-30T12:11:29.235Z,42.30
2023-01-30T12:14:15.161Z,39.59
2023-01-30T12:17:01.057Z,38.95
2023-01-30T12:19:46.970Z,42.39
2023-01-30T12:22:32.878Z,44.28
2023-01-30T12:25:20.779Z,45.98
2023-01-30T12:28:06.662Z,46.13
2023-01-30T12:30:52.539Z,46.69
2023-01-30T12:33:38.551Z,49.30
2023-01-30T12:36:24.375Z,52.43
2023-01-30T12:39:10.275Z,52.66
2023-01-30T12:41:56.174Z,54.98
2023-01-30T12:44:42.000Z,54.18
2023-01-30T12:47:28.296Z,55.48
2023-01-30T12:50:14.079Z,54.87
2023-01-30T12:52:59.997Z,54.57
2023-01-30T12:55:46.035Z,54.32
2023-01-30T12:58:31.959Z,53.93
2023-01-30T13:01:17.800Z,54.37
2023-01-30T13:04:03.746Z,54.11
2023-01-30T13:06:49.705Z,54.31
2023-01-30T13:09:35.566Z,54.10
2023-01-30T13:12:21.619Z,53.15
2023-01-30T13:15:07.540Z,52.98
2023-01-30T13:17:53.437Z,51.64
2023-01-30T13:20:39.363Z,51.52
2023-01-30T13:23:25.336Z,52.96
2023-01-30T13:26:11.265Z,55.58
2023-01-30T13:28:57.397Z,57.29
2023-01-30T13:31:43.396Z,57.33
2023-01-30T13:34:29.216Z,58.46
2023-01-30T13:37:15.034Z,59.24
2023-01-30T13:40:00.982Z,59.52
2023-01-30T13:42:46.871Z,58.86
2023-01-30T13:45:33.349Z,55.17
2023-01-30T13:48:19.231Z,52.60
2023-01-30T13:51:05.128Z,49.85
2023-01-30T13:53:51.105Z,50.11
2023-01-30T13:56:42.381Z,50.50
2023-01-30T13:59:28.716Z,50.68
2023-01-30T14:02:14.717Z,52.11
2023-01-30T14:05:00.652Z,53.53
2023-01-30T14:07:46.518Z,54.52
2023-01-30T14:10:32.485Z,51.48
2023-01-30T14:13:18.468Z,53.23
2023-01-30T14:16:04.762Z,55.82
2023-01-30T14:18:50.934Z,53.89
2023-01-30T14:21:36.789Z,53.52
2023-01-30T14:24:22.674Z,54.49
2023-01-30T14:27:09.935Z,51.37
2023-01-30T14:29:56.115Z,52.14
2023-01-30T14:32:42.239Z,51.13
2023-01-30T14:35:28.384Z,53.15
2023-01-30T14:38:14.336Z,50.05
2023-01-30T14:41:00.391Z,50.46
2023-01-30T14:43:46.244Z,52.77
2023-01-30T14:46:32.148Z,52.80
2023-01-30T14:49:18.141Z,50.89
2023-01-30T14:52:04.034Z,51.89
2023-01-30T14:54:50.034Z,50.25
2023-01-30T14:57:35.848Z,50.58
2023-01-30T15:00:21.651Z,50.25
2023-01-30T15:03:07.626Z,48.40
2023-01-30T15:05:53.443Z,48.31
2023-01-30T15:08:39.319Z,50.64
2023-01-30T15:11:25.308Z,49.44
2023-01-30T15:14:11.232Z,47.96
2023-01-30T15:16:57.264Z,48.54
2023-01-30T15:19:43.123Z,47.92
2023-01-30T15:22:29.096Z,47.04
2023-01-30T15:25:14.955Z,45.48
2023-01-30T15:28:00.798Z,46.01
2023-01-30T15:30:46.773Z,44.74
2023-01-30T15:33:32.875Z,45.04
2023-01-30T15:36:19.168Z,45.30
2023-01-30T15:39:05.166Z,46.31
2023-01-30T15:41:51.028Z,46.90
2023-01-30T15:44:37.063Z,46.51
2023-01-30T15:47:23.122Z,45.94
2023-01-30T15:50:08.953Z,46.05
2023-01-30T15:52:54.929Z,45.98
2023-01-30T15:55:40.771Z,45.35
2023-01-30T15:58:26.797Z,45.37
2023-01-30T16:01:12.800Z,43.94
2023-01-30T16:03:59.002Z,44.13
2023-01-30T16:06:45.008Z,44.14
2023-01-30T16:09:31.017Z,44.99
2023-01-30T16:12:16.944Z,46.71
2023-01-30T16:15:17.453Z,47.87
2023-01-30T16:18:05.940Z,49.05
2023-01-30T16:21:01.725Z,48.53
2023-01-30T16:23:48.547Z,47.38
2023-01-30T16:26:34.500Z,45.98
2023-01-30T16:29:20.777Z,46.86
2023-01-30T16:32:06.582Z,46.61
2023-01-30T16:34:52.585Z,46.92
2023-01-30T16:37:40.630Z,47.03
2023-01-30T16:40:26.434Z,48.65
2023-01-30T16:43:12.359Z,49.81
2023-01-30T16:45:58.337Z,49.27
2023-01-30T16:48:44.112Z,48.72
2023-01-30T16:51:30.653Z,47.09
2023-01-30T16:54:17.086Z,45.90
2023-01-30T16:57:03.079Z,46.01
2023-01-30T16:59:48.886Z,50.42
2023-01-30T17:02:34.883Z,51.77
2023-01-30T17:05:20.952Z,50.84
2023-01-30T17:08:06.874Z,49.10
2023-01-30T17:10:52.724Z,48.66
2023-01-30T17:13:38.686Z,48.18
2023-01-30T17:16:24.652Z,49.19
2023-01-30T17:19:10.643Z,51.99
2023-01-30T17:21:56.486Z,53.08
2023-01-30T17:24:42.269Z,54.78
2023-01-30T17:27:28.245Z,57.01
2023-01-30T17:30:14.247Z,57.88
2023-01-30T17:33:00.092Z,58.06
2023-01-30T17:35:46.111Z,58.68
2023-01-30T17:38:32.571Z,57.89
2023-01-30T17:41:18.405Z,54.95
2023-01-30T17:44:06.351Z,52.72
2023-01-30T17:46:52.284Z,51.97
2023-01-30T17:49:38.187Z,50.43
2023-01-30T17:52:24.186Z,49.17
2023-01-30T17:55:10.027Z,48.76
2023-01-30T17:57:55.984Z,48.76
2023-01-30T18:00:41.911Z,51.21
2023-01-30T18:03:27.898Z,49.65
2023-01-30T18:06:13.979Z,49.89
2023-01-30T18:08:59.992Z,51.58
2023-01-30T18:11:46.093Z,55.57
2023-01-30T18:14:32.023Z,55.45
2023-01-30T18:17:17.911Z,57.97
2023-01-30T18:20:03.914Z,60.07
2023-01-30T18:22:49.832Z,61.14
2023-01-30T18:25:35.700Z,60.64
2023-01-30T18:28:21.616Z,62.40
2023-01-30T18:31:07.745Z,62.28
2023-01-30T18:33:53.972Z,61.40
2023-01-30T18:36:39.931Z,61.55
2023-01-30T18:39:25.784Z,59.28
2023-01-30T18:42:11.620Z,60.02
2023-01-30T18:44:57.515Z,59.11
2023-01-30T18:47:43.389Z,60.47
2023-01-30T18:50:29.389Z,62.52
2023-01-30T18:53:15.254Z,61.91
2023-01-30T18:56:01.255Z,60.66
2023-01-30T18:58:47.261Z,62.46
2023-01-30T19:01:33.124Z,61.79
2023-01-30T19:04:19.052Z,61.93
2023-01-30T19:07:04.984Z,61.14
2023-01-30T19:09:50.846Z,59.30
2023-01-30T19:12:36.773Z,58.48
2023-01-30T19:15:22.599Z,62.46
2023-01-30T19:18:08.363Z,62.08
2023-01-30T19:20:54.267Z,61.13
2023-01-30T19:23:40.203Z,62.40
2023-01-30T19:26:26.185Z,61.85
2023-01-30T19:29:11.977Z,60.18
2023-01-30T19:31:58.108Z,59.93
2023-01-30T19:34:44.461Z,62.03
2023-01-30T19:37:30.661Z,61.44
2023-01-30T19:40:17.033Z,59.08
2023-01-30T19:43:10.880Z,60.28
2023-01-30T19:45:57.165Z,61.69
2023-01-30T19:48:42.935Z,61.26
2023-01-30T19:51:28.891Z,59.20
2023-01-30T19:54:15.016Z,58.77
2023-01-30T19:57:00.829Z,58.39
2023-01-30T19:59:46.654Z,59.52
2023-01-30T20:02:32.706Z,59.62
2023-01-30T20:05:18.745Z,61.68
2023-01-30T20:08:04.796Z,63.46
2023-01-30T20:10:50.599Z,61.72
2023-01-30T20:13:36.494Z,62.38
2023-01-30T20:16:22.320Z,61.37
2023-01-30T20:19:08.372Z,61.22
2023-01-30T20:21:54.062Z,65.14
2023-01-30T20:24:39.798Z,66.48
2023-01-30T20:27:25.563Z,67.07
2023-01-30T20:30:11.606Z,67.17
2023-01-30T20:32:57.400Z,68.25
2023-01-30T20:35:43.322Z,68.51
2023-01-30T20:38:29.338Z,68.53
2023-01-30T20:41:15.328Z,67.89
2023-01-30T20:44:01.362Z,67.07
2023-01-30T20:46:47.299Z,66.79
2023-01-30T20:49:33.462Z,65.93
2023-01-30T20:52:19.207Z,63.90
2023-01-30T20:55:05.154Z,63.15
2023-01-30T20:57:51.037Z,64.04
2023-01-30T21:00:37.211Z,65.49
2023-01-30T21:03:23.222Z,64.63
2023-01-30T21:06:09.214Z,64.88
2023-01-30T21:08:55.140Z,64.88
2023-01-30T21:11:41.142Z,65.30
2023-01-30T21:14:27.056Z,64.63
2023-01-30T21:17:12.995Z,64.14
2023-01-30T21:19:58.883Z,63.24
2023-01-30T21:22:44.771Z,63.87
2023-01-30T21:25:30.584Z,67.22
2023-01-30T21:28:16.653Z,67.55
2023-01-30T21:31:02.706Z,66.56
2023-01-30T21:33:48.654Z,66.75
2023-01-30T21:36:34.516Z,65.07
2023-01-30T21:39:20.347Z,64.83
2023-01-30T21:42:06.234Z,64.36
2023-01-30T21:44:52.145Z,64.65
2023-01-30T21:47:38.107Z,65.56
2023-01-30T21:50:24.660Z,62.80
2023-01-30T21:53:10.519Z,61.70
2023-01-30T21:55:56.868Z,63.71
2023-01-30T21:58:42.989Z,65.82
2023-01-30T22:01:28.872Z,65.57
2023-01-30T22:04:14.793Z,67.84
2023-01-30T22:07:00.789Z,68.08
2023-01-30T22:09:46.501Z,64.36
2023-01-30T22:12:32.466Z,66.01
2023-01-30T22:15:18.660Z,64.73
2023-01-30T22:18:04.629Z,63.13
2023-01-30T22:20:50.614Z,63.93
2023-01-30T22:23:36.582Z,65.26
2023-01-30T22:26:22.533Z,62.17
2023-01-30T22:29:08.456Z,68.80
2023-01-30T22:31:54.945Z,72.77
2023-01-30T22:34:41.025Z,71.74
2023-01-30T22:37:26.885Z,70.58
2023-01-30T22:40:12.892Z,73.09
2023-01-30T22:42:58.816Z,72.15
2023-01-30T22:45:44.477Z,71.38
2023-01-30T22:48:30.465Z,71.28
2023-01-30T22:51:16.277Z,71.67
2023-01-30T22:54:02.160Z,71.00
2023-01-30T22:56:48.767Z,72.24
2023-01-30T22:59:35.106Z,69.96
2023-01-30T23:02:21.520Z,69.65
2023-01-30T23:05:07.490Z,69.95
2023-01-30T23:07:53.203Z,69.19
2023-01-30T23:10:39.194Z,68.41
2023-01-30T23:13:25.094Z,68.31
2023-01-30T23:16:10.976Z,71.46
2023-01-30T23:18:56.898Z,75.99
2023-01-30T23:21:42.734Z,76.31
2023-01-30T23:24:28.717Z,76.27
2023-01-30T23:27:14.592Z,75.44
2023-01-30T23:30:00.417Z,75.27
2023-01-30T23:32:46.252Z,75.74
2023-01-30T23:35:32.048Z,75.36
2023-01-30T23:38:17.903Z,75.33
2023-01-30T23:41:03.863Z,75.31
2023-01-30T23:43:49.682Z,75.64
2023-01-30T23:46:35.728Z,75.59
2023-01-30T23:49:21.631Z,77.35
2023-01-30T23:52:09.514Z,77.88
2023-01-30T23:54:55.451Z,81.23
2023-01-30T23:57:41.304Z,81.37
